createdAt,value
2023-02-21T00:01:17.438Z,58.5
2023-02-21T00:07:31.546Z,66
2023-02-21T00:09:34.630Z,58.6
2023-02-21T00:11:37.737Z,57
2023-02-21T00:13:40.831Z,77.8
2023-02-21T00:17:50.276Z,60.1
2023-02-21T00:21:56.526Z,58.1
2023-02-21T00:30:33.124Z,71
2023-02-21T00:34:39.280Z,59.9
2023-02-21T00:36:42.389Z,71.1
2023-02-21T00:38:45.477Z,67.8
2023-02-21T00:40:48.583Z,80
2023-02-21T00:42:51.691Z,64.9
2023-02-21T00:44:58.005Z,63.4
2023-02-21T00:47:01.125Z,86.2
2023-02-21T00:49:04.227Z,65
2023-02-21T00:51:07.327Z,74.4
2023-02-21T00:53:10.452Z,63.2
2023-02-21T00:59:22.943Z,61.6
2023-02-21T01:01:26.123Z,63.1
2023-02-21T01:03:29.181Z,63.2
2023-02-21T01:05:32.279Z,65
2023-02-21T01:07:35.398Z,71
2023-02-21T01:13:47.968Z,60.6
2023-02-21T01:15:51.079Z,57.9
2023-02-21T01:17:54.183Z,60.3
2023-02-21T01:18:57.341Z,69.7
2023-02-21T01:21:00.473Z,69.1
2023-02-21T01:23:03.574Z,57.1
2023-02-21T01:25:06.682Z,69
2023-02-21T01:27:13.007Z,72.5
2023-02-21T01:31:19.239Z,68.8
2023-02-21T01:33:22.292Z,55
2023-02-21T01:37:28.524Z,70.8
2023-02-21T01:39:31.633Z,71.9
2023-02-21T01:41:37.948Z,65.7
2023-02-21T01:43:41.061Z,71.7
2023-02-21T01:47:47.252Z,73.2
2023-02-21T01:49:50.384Z,62.1
2023-02-21T01:51:53.515Z,90
2023-02-21T01:58:06.059Z,72.3
2023-02-21T02:00:09.116Z,75.5
2023-02-21T02:02:12.227Z,63.9
2023-02-21T02:04:15.358Z,69.3
2023-02-21T02:06:18.432Z,64.6
2023-02-21T02:08:21.531Z,66.4
2023-02-21T02:10:27.857Z,78.7
2023-02-21T02:12:30.944Z,56.3
2023-02-21T02:15:37.237Z,80.9
2023-02-21T02:17:40.303Z,62.6
2023-02-21T02:23:52.850Z,82.5
2023-02-21T02:25:55.928Z,86
2023-02-21T02:27:59.058Z,84.7
2023-02-21T02:32:05.420Z,75.8
2023-02-21T02:34:08.414Z,70.1
2023-02-21T02:36:11.535Z,78.4
2023-02-21T02:38:17.849Z,88
2023-02-21T02:44:27.205Z,68.3
2023-02-21T02:46:30.380Z,70
2023-02-21T02:48:33.423Z,92.2
2023-02-21T02:50:36.520Z,71.3
2023-02-21T02:52:42.861Z,79.1
2023-02-21T02:56:49.093Z,89.9
2023-02-21T02:58:52.185Z,82.6
2023-02-21T03:00:55.288Z,89.9
2023-02-21T03:02:58.386Z,86.2
2023-02-21T03:05:01.513Z,74.1
2023-02-21T03:07:07.809Z,77.6
2023-02-21T03:09:10.933Z,71.9
2023-02-21T03:11:14.369Z,76
2023-02-21T03:12:17.193Z,95
2023-02-21T03:14:20.286Z,79.6
2023-02-21T03:16:23.498Z,68.7
2023-02-21T03:20:32.838Z,89.5
2023-02-21T03:24:39.071Z,93.8
2023-02-21T03:26:42.176Z,72.4
2023-02-21T03:28:45.299Z,122.2
2023-02-21T03:30:48.403Z,76.8
2023-02-21T03:32:51.530Z,87
2023-02-21T03:34:57.839Z,97.6
2023-02-21T03:37:00.944Z,83.4
2023-02-21T03:39:04.064Z,91.6
2023-02-21T03:41:07.170Z,84.4
2023-02-21T03:43:10.277Z,83.2
2023-02-21T03:49:22.826Z,85.7
2023-02-21T03:51:25.929Z,98
2023-02-21T03:53:29.041Z,84.4
2023-02-21T03:55:32.164Z,78.5
2023-02-21T03:57:35.258Z,86.4
2023-02-21T03:59:38.360Z,96
2023-02-21T04:01:41.518Z,95.8
2023-02-21T04:03:47.800Z,97.8
2023-02-21T04:05:50.902Z,72.3
2023-02-21T04:07:54.063Z,82.5
2023-02-21T04:10:17.916Z,101.7
2023-02-21T04:12:21.021Z,108.3
2023-02-21T04:14:24.150Z,108.8
2023-02-21T04:16:30.487Z,107.9
2023-02-21T04:18:34.865Z,103.9
2023-02-21T04:20:36.677Z,102.3
2023-02-21T04:22:39.787Z,94.8
2023-02-21T04:24:42.881Z,90.6
2023-02-21T04:32:58.497Z,143.2
2023-02-21T04:39:07.834Z,119.4
2023-02-21T04:41:10.925Z,122.2
2023-02-21T04:43:14.007Z,80.6
2023-02-21T04:47:23.456Z,98.8
2023-02-21T04:51:29.669Z,107.8
2023-02-21T04:55:35.883Z,99.6
2023-02-21T04:57:39.002Z,126
2023-02-21T04:59:45.339Z,94.3
2023-02-21T05:04:54.736Z,113.5
2023-02-21T05:06:57.810Z,125.6
2023-02-21T05:09:00.937Z,122.5
2023-02-21T05:11:04.066Z,141.3
2023-02-21T05:13:10.383Z,124.6
2023-02-21T05:15:13.493Z,130.1
2023-02-21T05:17:16.582Z,142
2023-02-21T05:19:19.693Z,138.4
2023-02-21T05:23:25.923Z,119.9
2023-02-21T05:25:29.034Z,110
2023-02-21T05:27:35.347Z,123.3
2023-02-21T05:29:38.457Z,129.5
2023-02-21T05:33:44.664Z,144.8
2023-02-21T05:35:47.793Z,120.5
2023-02-21T05:37:50.871Z,110.1
2023-02-21T05:39:54.004Z,142.2
2023-02-21T05:42:00.305Z,160.6
2023-02-21T05:44:03.428Z,156.1
2023-02-21T05:46:06.591Z,145.8
2023-02-21T05:48:09.620Z,123.1
2023-02-21T05:50:12.722Z,148.2
2023-02-21T05:52:15.827Z,147.6
2023-02-21T05:56:25.270Z,139.6
2023-02-21T05:58:28.343Z,118.6
2023-02-21T06:00:31.460Z,141.5
2023-02-21T06:01:36.250Z,132.1
2023-02-21T06:03:39.318Z,145.6
2023-02-21T06:11:54.916Z,153.5
2023-02-21T06:13:58.047Z,149.1
2023-02-21T06:16:01.167Z,144.9
2023-02-21T06:18:04.257Z,130.7
2023-02-21T06:20:07.349Z,154
2023-02-21T06:22:10.467Z,164.6
2023-02-21T06:24:16.801Z,132.5
2023-02-21T06:26:19.917Z,151.5
2023-02-21T06:28:23.048Z,133.9
2023-02-21T06:30:26.219Z,142.2
2023-02-21T06:32:29.278Z,137.3
2023-02-21T06:34:32.850Z,147.5
2023-02-21T06:36:35.983Z,141.2
2023-02-21T06:38:42.301Z,175.6
2023-02-21T06:40:45.404Z,167.4
2023-02-21T06:42:48.503Z,139.7
2023-02-21T06:46:54.743Z,150.2
2023-02-21T06:48:57.885Z,155.4
2023-02-21T06:51:00.976Z,151.4
2023-02-21T06:53:07.307Z,163.8
2023-02-21T06:55:10.449Z,173.9
2023-02-21T06:57:13.535Z,128.8
2023-02-21T06:58:16.736Z,149.1
2023-02-21T07:00:19.784Z,142.7
2023-02-21T07:08:35.467Z,159.7
2023-02-21T07:10:38.535Z,167
2023-02-21T07:12:41.657Z,161.4
2023-02-21T07:14:44.767Z,165.1
2023-02-21T07:16:47.855Z,168.5
2023-02-21T07:20:57.293Z,181.6
2023-02-21T07:23:00.399Z,167.5
2023-02-21T07:25:03.494Z,175.8
2023-02-21T07:29:09.831Z,152.2
2023-02-21T07:33:15.937Z,183.3
2023-02-21T07:35:22.265Z,164.6
2023-02-21T07:39:28.480Z,159.8
2023-02-21T07:41:31.589Z,174.2
2023-02-21T07:43:34.667Z,157.2
2023-02-21T07:45:37.788Z,172.7
2023-02-21T07:47:40.902Z,157.2
2023-02-21T07:49:47.212Z,166.5
2023-02-21T07:51:50.300Z,180
2023-02-21T07:53:53.432Z,157.8
2023-02-21T07:56:17.182Z,156.9
2023-02-21T08:02:29.665Z,176.5
2023-02-21T08:10:42.042Z,163.4
2023-02-21T08:12:45.157Z,166.8
2023-02-21T08:14:48.254Z,158.3
2023-02-21T08:16:54.587Z,153.4
2023-02-21T08:18:57.669Z,176.3
2023-02-21T08:21:00.785Z,154.8
2023-02-21T08:23:03.911Z,172.5
2023-02-21T08:25:06.995Z,179.9
2023-02-21T08:27:10.135Z,172.3
2023-02-21T08:29:13.212Z,168.2
2023-02-21T08:31:19.543Z,164.5
2023-02-21T08:33:22.627Z,161.4
2023-02-21T08:35:25.755Z,177.2
2023-02-21T08:37:28.872Z,173.6
2023-02-21T08:39:32.046Z,171.3
2023-02-21T08:41:35.094Z,157.6
2023-02-21T08:43:38.173Z,165.2
2023-02-21T08:45:44.463Z,186.7
2023-02-21T08:47:47.570Z,162.2
2023-02-21T08:50:53.847Z,157.2
2023-02-21T08:52:57.093Z,176.6
2023-02-21T08:55:00.037Z,200.5
2023-02-21T08:57:03.142Z,166.9
2023-02-21T08:59:09.587Z,166.2
2023-02-21T09:05:18.796Z,167.9
2023-02-21T09:11:28.080Z,163.6
2023-02-21T09:15:37.486Z,147.6
2023-02-21T09:17:40.615Z,176.4
2023-02-21T09:21:46.808Z,158.8
2023-02-21T09:30:02.433Z,161
2023-02-21T09:32:05.662Z,164.9
2023-02-21T09:34:08.657Z,180
2023-02-21T09:36:11.744Z,184.1
2023-02-21T09:38:14.840Z,159.2
2023-02-21T09:40:17.928Z,178
2023-02-21T09:42:24.265Z,173
2023-02-21T09:44:27.374Z,143
2023-02-21T09:46:30.484Z,165.4
2023-02-21T09:47:33.648Z,176.3
2023-02-21T09:49:36.745Z,186
2023-02-21T09:51:39.827Z,166.9
2023-02-21T09:53:42.959Z,168.9
2023-02-21T09:55:49.261Z,169.6
2023-02-21T09:57:52.367Z,136
2023-02-21T10:04:01.655Z,143.8
2023-02-21T10:08:07.885Z,179.7
2023-02-21T10:12:17.308Z,130.4
2023-02-21T10:14:20.469Z,131.2
2023-02-21T10:16:23.583Z,156.2
2023-02-21T10:18:26.665Z,123.3
2023-02-21T10:20:29.772Z,152.4
2023-02-21T10:22:32.881Z,141.2
2023-02-21T10:24:39.194Z,137.5
2023-02-21T10:26:42.320Z,140.1
2023-02-21T10:30:48.691Z,133.7
2023-02-21T10:36:57.859Z,116.4
2023-02-21T10:39:04.163Z,109.7
2023-02-21T10:41:07.275Z,107.6
2023-02-21T10:43:10.395Z,129.1
2023-02-21T10:46:16.698Z,113.3
2023-02-21T10:48:19.806Z,96.7
2023-02-21T10:50:22.881Z,91.8
2023-02-21T10:52:29.209Z,104.1
2023-02-21T10:54:35.011Z,103.5
2023-02-21T10:56:35.418Z,103.9
2023-02-21T10:58:38.489Z,87.5
2023-02-21T11:00:41.603Z,108
2023-02-21T11:02:44.849Z,110.6
2023-02-21T11:04:47.841Z,98.7
2023-02-21T11:08:57.629Z,83.6
2023-02-21T11:15:06.964Z,86.7
2023-02-21T11:17:10.662Z,76.8
2023-02-21T11:21:19.506Z,88.4
2023-02-21T11:23:22.626Z,102.8
2023-02-21T11:27:28.818Z,81.6
2023-02-21T11:29:31.928Z,101.1
2023-02-21T11:33:38.174Z,86.6
2023-02-21T11:37:47.571Z,104.1
2023-02-21T11:39:50.709Z,91.4
2023-02-21T11:42:20.508Z,90.9
2023-02-21T11:44:23.560Z,96.1
2023-02-21T11:46:26.696Z,88.9
2023-02-21T11:48:32.976Z,85.4
2023-02-21T11:50:36.065Z,89.8
2023-02-21T11:52:39.173Z,96.5
2023-02-21T11:56:46.954Z,83.9
2023-02-21T12:00:53.088Z,89.4
2023-02-21T12:09:08.724Z,96.5
2023-02-21T12:11:11.826Z,84.7
2023-02-21T12:13:14.944Z,105.3
2023-02-21T12:15:18.035Z,106.7
2023-02-21T12:17:24.337Z,97.5
2023-02-21T12:19:27.490Z,80.7
2023-02-21T12:21:30.538Z,84.1
2023-02-21T12:23:33.658Z,91.5
2023-02-21T12:25:36.770Z,86.2
2023-02-21T12:27:39.848Z,108.9
2023-02-21T12:29:42.966Z,80.3
2023-02-21T12:33:52.388Z,89.5
2023-02-21T12:35:55.597Z,83.5
2023-02-21T12:39:01.783Z,85.5
2023-02-21T12:41:04.898Z,90
2023-02-21T12:45:14.276Z,80.7
2023-02-21T12:47:17.395Z,77.4
2023-02-21T12:49:20.527Z,81.1
2023-02-21T12:51:23.606Z,91.4
2023-02-21T12:53:26.716Z,92.5
2023-02-21T13:07:51.675Z,94.8
2023-02-21T13:14:04.184Z,99.1
2023-02-21T13:16:07.345Z,87.1
2023-02-21T13:20:13.523Z,90.3
2023-02-21T13:26:22.832Z,88.1
2023-02-21T13:28:29.156Z,79.3
2023-02-21T13:30:32.440Z,105.1
2023-02-21T13:33:38.518Z,95.5
2023-02-21T13:35:41.605Z,94.7
2023-02-21T13:37:44.714Z,87.4
2023-02-21T13:39:47.816Z,90.5
2023-02-21T13:41:54.135Z,80.6
2023-02-21T13:43:57.236Z,81.7
2023-02-21T13:46:00.325Z,86.5
2023-02-21T13:48:03.609Z,70.3
2023-02-21T13:50:06.568Z,89
2023-02-21T13:52:09.665Z,69.5
2023-02-21T13:54:12.773Z,76.7
2023-02-21T13:56:19.111Z,82.8
2023-02-21T13:58:22.200Z,84.3
2023-02-21T14:00:25.308Z,65.3
2023-02-21T14:02:28.399Z,62.7
2023-02-21T14:04:31.515Z,58.6
2023-02-21T14:06:34.665Z,54.7
2023-02-21T14:08:37.756Z,66.3
2023-02-21T14:10:44.076Z,61.3
2023-02-21T14:12:47.187Z,65.2
2023-02-21T14:14:50.282Z,47.9
2023-02-21T14:16:53.507Z,54.8
2023-02-21T14:18:56.517Z,56
2023-02-21T14:20:59.662Z,51.6
2023-02-21T14:25:10.704Z,54.6
2023-02-21T14:27:12.270Z,51.7
2023-02-21T14:29:15.380Z,53.3
2023-02-21T14:30:18.518Z,41.1
2023-02-21T14:36:27.815Z,47.8
2023-02-21T14:38:34.084Z,42.8
2023-02-21T14:40:37.194Z,42.7
2023-02-21T14:42:40.283Z,45.8
2023-02-21T14:44:43.405Z,45.2
2023-02-21T14:46:46.527Z,59.7
2023-02-21T14:48:49.644Z,41.6
2023-02-21T14:50:52.753Z,35.6
2023-02-21T14:52:59.077Z,36.3
2023-02-21T14:55:02.216Z,39.2
2023-02-21T14:59:08.445Z,41.6
2023-02-21T15:01:11.611Z,41.2
2023-02-21T15:03:14.667Z,33.8
2023-02-21T15:05:17.815Z,47.3
2023-02-21T15:07:24.069Z,42.3
2023-02-21T15:09:27.212Z,47.3
2023-02-21T15:11:30.303Z,28.8
2023-02-21T15:13:33.413Z,35.3
2023-02-21T15:15:36.523Z,33.2
2023-02-21T15:17:39.634Z,39.5
2023-02-21T15:19:42.764Z,40.1
2023-02-21T15:21:49.065Z,28.8
2023-02-21T15:23:52.178Z,40.3
2023-02-21T15:25:55.317Z,34.4
2023-02-21T15:28:19.001Z,26.4
2023-02-21T15:30:22.147Z,23.4
2023-02-21T15:32:25.230Z,32.9
2023-02-21T15:34:31.546Z,26.5
2023-02-21T15:36:34.676Z,27.3
2023-02-21T15:38:37.791Z,22.9
2023-02-21T15:40:40.909Z,25.3
2023-02-21T15:42:44.014Z,31.7
2023-02-21T15:44:47.115Z,34.8
2023-02-21T15:46:50.263Z,29.2
2023-02-21T15:48:56.537Z,35.6
2023-02-21T15:50:59.675Z,28.9
2023-02-21T15:53:02.767Z,23.1
2023-02-21T15:59:12.135Z,46.8
2023-02-21T16:01:15.671Z,33.8
2023-02-21T16:03:21.528Z,40
2023-02-21T16:05:24.645Z,31.5
2023-02-21T16:07:27.768Z,21.6
2023-02-21T16:09:30.867Z,27.2
2023-02-21T16:15:41.149Z,35
2023-02-21T16:17:47.379Z,27.7
2023-02-21T16:19:50.501Z,32
2023-02-21T16:21:53.613Z,32.6
2023-02-21T16:23:07.742Z,37.4
2023-02-21T16:24:59.893Z,30.8
2023-02-21T16:27:03.002Z,29.5
2023-02-21T16:29:06.145Z,35.4
2023-02-21T16:31:12.541Z,39.4
2023-02-21T16:33:15.539Z,22.8
2023-02-21T16:35:18.658Z,34.4
2023-02-21T16:37:21.762Z,37.9
2023-02-21T16:39:24.888Z,34
2023-02-21T16:41:27.992Z,30.7
2023-02-21T16:43:31.105Z,42.7
2023-02-21T16:45:37.422Z,32.4
2023-02-21T16:47:40.534Z,28
2023-02-21T16:49:43.638Z,27.5
2023-02-21T16:53:49.861Z,27.3
2023-02-21T16:55:52.982Z,35.8
2023-02-21T17:02:05.487Z,31.2
2023-02-21T17:06:11.731Z,29.9
2023-02-21T17:08:14.835Z,36.6
2023-02-21T17:10:17.992Z,29.6
2023-02-21T17:16:30.468Z,43.4
2023-02-21T17:18:33.573Z,41.6
2023-02-21T17:19:36.702Z,39.8
2023-02-21T17:21:39.826Z,51.1
2023-02-21T17:23:42.925Z,49.7
2023-02-21T17:25:46.070Z,55.1
2023-02-21T17:27:52.365Z,54.2
2023-02-21T17:29:55.443Z,63.5
2023-02-21T17:42:17.346Z,40.1
2023-02-21T17:46:23.619Z,40.5
2023-02-21T17:48:26.662Z,41.9
2023-02-21T17:50:29.785Z,37.9
2023-02-21T17:52:34.457Z,48.5
2023-02-21T17:54:37.517Z,43
2023-02-21T17:56:43.848Z,45.7
2023-02-21T17:58:46.978Z,56.6
2023-02-21T18:00:50.090Z,41.4
2023-02-21T18:02:53.205Z,32.2
2023-02-21T18:04:56.376Z,39.6
2023-02-21T18:06:59.420Z,38.2
2023-02-21T18:09:02.528Z,39.3
2023-02-21T18:11:08.846Z,37.9
2023-02-21T18:13:11.986Z,42.7
2023-02-21T18:15:15.099Z,60
2023-02-21T18:16:18.321Z,51.4
2023-02-21T18:20:24.491Z,44.6
2023-02-21T18:22:27.606Z,54.9
2023-02-21T18:24:33.942Z,46
2023-02-21T18:26:37.035Z,35.7
2023-02-21T18:28:40.146Z,43.2
2023-02-21T18:32:46.375Z,40
2023-02-21T18:34:49.502Z,43.5
2023-02-21T18:38:58.928Z,47.8
2023-02-21T18:41:02.063Z,44.4
2023-02-21T18:43:05.175Z,44
2023-02-21T18:45:08.273Z,47.7
2023-02-21T18:47:11.391Z,43.9
2023-02-21T18:51:17.995Z,46.5
2023-02-21T18:53:23.914Z,37
2023-02-21T18:55:27.062Z,36.4
2023-02-21T18:57:30.156Z,34.5
2023-02-21T19:01:36.389Z,33.6
2023-02-21T19:03:39.563Z,35.8
2023-02-21T19:05:42.594Z,34.1
2023-02-21T19:07:48.917Z,40.4
2023-02-21T19:16:28.000Z,43.5
2023-02-21T19:18:31.010Z,32.8
2023-02-21T19:20:37.328Z,34
2023-02-21T19:22:40.447Z,41.5
2023-02-21T19:24:43.561Z,44.3
2023-02-21T19:26:46.798Z,38
2023-02-21T19:28:49.793Z,44.2
2023-02-21T19:30:52.906Z,36.3
2023-02-21T19:32:55.990Z,56.6
2023-02-21T19:35:02.338Z,70.3
2023-02-21T19:37:05.419Z,50.1
2023-02-21T19:39:08.540Z,36.5
2023-02-21T19:41:11.621Z,58.3
2023-02-21T19:45:17.836Z,39.5
2023-02-21T19:47:20.938Z,48.6
2023-02-21T19:49:27.263Z,44.6
2023-02-21T19:51:30.373Z,34.2
2023-02-21T19:53:33.476Z,39.7
2023-02-21T19:55:36.594Z,37.4
2023-02-21T19:57:39.753Z,34.3
2023-02-21T19:59:42.808Z,42.8
2023-02-21T20:01:45.896Z,43.7
2023-02-21T20:03:52.222Z,38.2
2023-02-21T20:05:55.309Z,39.4
2023-02-21T20:07:58.391Z,43.8
2023-02-21T20:09:01.563Z,40.1
2023-02-21T20:11:04.669Z,36.2
2023-02-21T20:13:07.769Z,35.5
2023-02-21T20:15:10.872Z,44.6
2023-02-21T20:19:20.306Z,38.4
2023-02-21T20:21:23.419Z,31.4
2023-02-21T20:23:26.523Z,41.6
2023-02-21T20:25:29.633Z,47.8
2023-02-21T20:27:32.764Z,55.5
2023-02-21T20:29:35.813Z,49.8
2023-02-21T20:31:42.279Z,50.9
2023-02-21T20:33:45.231Z,54.5
2023-02-21T20:35:48.341Z,50.4
2023-02-21T20:37:51.443Z,47.2
2023-02-21T20:39:54.544Z,38.7
2023-02-21T20:41:57.645Z,44.3
2023-02-21T20:44:00.775Z,41.1
2023-02-21T20:46:07.137Z,49.3
2023-02-21T20:48:10.190Z,47.4
2023-02-21T20:50:13.289Z,42.8
2023-02-21T20:52:16.394Z,69.2
2023-02-21T20:54:19.506Z,43.4
2023-02-21T20:56:22.629Z,49.6
2023-02-21T20:58:25.719Z,76.5
2023-02-21T21:00:32.029Z,69.1
2023-02-21T21:02:35.116Z,69.2
2023-02-21T21:04:38.308Z,62
2023-02-21T21:05:41.395Z,55.3
2023-02-21T21:07:44.532Z,56.5
2023-02-21T21:09:47.655Z,59.6
2023-02-21T21:13:57.046Z,47.1
2023-02-21T21:18:03.244Z,46.3
2023-02-21T21:26:15.654Z,53.5
2023-02-21T21:30:25.437Z,59.9
2023-02-21T21:32:28.525Z,50.9
2023-02-21T21:36:34.685Z,56.4
2023-02-21T21:46:53.410Z,63.8
2023-02-21T21:48:56.526Z,45.7
2023-02-21T21:53:02.756Z,50.1
2023-02-21T21:55:05.841Z,57.2
2023-02-21T21:57:12.148Z,42.8
2023-02-21T21:59:15.266Z,52.4
2023-02-21T22:01:18.626Z,55.6
2023-02-21T22:02:21.557Z,47.3
2023-02-21T22:04:24.635Z,55.1
2023-02-21T22:06:27.744Z,52.9
2023-02-21T22:08:30.821Z,49.9
2023-02-21T22:10:37.159Z,69.5
2023-02-21T22:12:40.255Z,43.8
2023-02-21T22:14:43.360Z,46.2
2023-02-21T22:16:46.452Z,51
2023-02-21T22:18:49.567Z,36.3
2023-02-21T22:22:55.787Z,42.6
2023-02-21T22:27:05.173Z,52.8
2023-02-21T22:29:08.284Z,51.2
2023-02-21T22:31:11.414Z,57.4
2023-02-21T22:33:14.520Z,57.4
2023-02-21T22:35:17.584Z,45
2023-02-21T22:39:27.014Z,46.2
2023-02-21T22:43:33.202Z,58.7
2023-02-21T22:45:36.304Z,48.9
2023-02-21T22:47:39.414Z,50.4
2023-02-21T22:49:42.517Z,64
2023-02-21T22:51:45.622Z,44.6
2023-02-21T22:53:51.908Z,38.5
2023-02-21T22:55:55.028Z,41.6
2023-02-21T23:00:27.905Z,39.9
2023-02-21T23:02:31.019Z,39.4
2023-02-21T23:04:37.514Z,35.5
2023-02-21T23:06:40.414Z,34.6
2023-02-21T23:08:43.489Z,35.2
2023-02-21T23:10:46.600Z,30
2023-02-21T23:12:49.716Z,45
2023-02-21T23:14:52.830Z,38.6
2023-02-21T23:16:55.909Z,33
2023-02-21T23:18:59.012Z,34.4
2023-02-21T23:27:14.633Z,32.4
2023-02-21T23:35:30.278Z,25
2023-02-21T23:37:33.392Z,23.1
2023-02-21T23:41:39.558Z,27.7
2023-02-21T23:45:45.799Z,32.1
2023-02-21T23:47:50.474Z,32
2023-02-21T23:54:02.926Z,33.8
2023-02-21T23:55:06.080Z,33.6
2023-02-21T23:57:09.201Z,32.8
2023-02-21T23:59:12.297Z,38.9
